Southeast Texas Regional Airport
KBPT : now visible

Airfield :











YOU CAN JOIN US ON...

 
LOGIN :

Register | Disclaimer

   EN    FR    IT 

 









Legend :    VFR   Marginal VFR   IFR   Intensive IFR   Very Intensive IFR
Visi :
Ceiling :
>= 8 km
>= 3000ft
5 to 8 km
1000 to 3000 ft
1500m to 5 km
500 to 1000 ft
800 to 1500m
200 to 500 ft
< 800m
< 200 ft
Symbols :   Thunderstorms  Fog  Heavy snow  Heavy precipitations  Wind > 20 kt






- Airport Elevation : 15 ft
- IATA code : BPT


KBPT - Southeast Texas Regional

CURRENT METAR :
  • 271400Z 07007KT 6SM BR CLR 21/19 A2997 RMK AO2 T02110194

EXPIRED METARs :
  • 271256Z 06007KT 3SM BR BKN010 19/19 A2996 RMK AO2 T01890189
  • 271153Z 04007KT 5SM BR BKN005 18/18 A2996 RMK AO2 SLP145 T01830183 10217 20183 55004

TAF KBPT
Valid from the 27 at 12:00 until the 28 at 12:00 UTC


271137Z 2712/2812 05008KT 5SM BR SCT005
TEMPO 2712/2714 2SM BR OVC003
FM271400 05010G15KT P6SM SCT012 BKN035
FM272000 07009KT P6SM VCSH OVC025
FM280200 04012G18KT P6SM VCSH OVC015
PROB30 2802/2808 4SM SHRA
FM280800 05012G18KT P6SM VCSH OVC008
TEMPO 2808/2812 4SM SHRA
KZHU FIR / North America



MET'MAP, your aeronautical weather chart ! - Copyright ORBIFLY December 2007 - Disclaimer

ORBIFLY MET'MAP TEAM :

Programming & Development : Alexandra Zaïnal
Concept & original design : Baudouin d'Aumeries
Assistance for programming : Marc-Olivier Méhu
Technical & hardware support : Manuel Goepfert

Contact : metmap@orbifly.com




SOURCES & CREDITS :

   NOAA       Earth
Advisory